[2024-12-28 00:00:00, 2024-12-28 23:59:59] previous next
| time | temperature | air pressure | humidity | solar radiation | wind speed |
|---|---|---|---|---|---|
| 2024-12-28 08:57:51 | -2.1 | 1022.2 | 99.0 | 20.6 | 0.0 |
| 2024-12-28 09:19:34 | -1.5 | 1021.8 | 99.0 | 24.2 | 0.0 |
| 2024-12-28 09:39:33 | -1.3 | 1021.8 | 99.0 | 24.9 | 0.0 |
| 2024-12-28 09:59:33 | -0.4 | 1021.8 | 99.0 | 24.6 | 0.0 |
| 2024-12-28 10:19:36 | -0.1 | 1021.8 | 99.0 | 26.5 | 0.0 |
| 2024-12-28 10:39:34 | 0.3 | 1021.8 | 99.0 | 29.1 | 0.0 |
| 2024-12-28 10:59:34 | 1.1 | 1021.5 | 99.0 | 30.7 | 0.0 |
| 2024-12-28 11:19:33 | 1.8 | 1021.5 | 99.0 | 32.5 | 0.0 |
| 2024-12-28 11:39:36 | 2.3 | 1021.2 | 99.0 | 91.3 | 0.0 |
| 2024-12-28 11:59:52 | 3.5 | 1020.8 | 99.0 | 132.8 | 0.0 |
| 2024-12-28 12:19:52 | 5.0 | 1020.8 | 99.0 | 161.9 | 0.0 |
| 2024-12-28 12:39:38 | 4.2 | 1020.5 | 99.0 | 165.3 | 0.0 |
| 2024-12-28 12:59:34 | 3.8 | 1020.5 | 99.0 | 160.9 | 0.0 |
| 2024-12-28 13:19:35 | 3.8 | 1020.1 | 99.0 | 154.7 | 0.0 |
| 2024-12-28 13:39:33 | 4.2 | 1020.1 | 99.0 | 144.7 | 0.0 |
| 2024-12-28 13:59:33 | 4.0 | 1020.1 | 99.0 | 128.1 | 0.0 |
| 2024-12-28 14:19:35 | 4.1 | 1020.1 | 99.0 | 104.3 | 0.0 |
| 2024-12-28 14:39:34 | 3.9 | 1020.1 | 99.0 | 74.3 | 0.0 |
| 2024-12-28 14:59:33 | 3.7 | 1020.5 | 99.0 | 42.1 | 0.0 |
CSV export: /station/IWELLEN5/data?period=20241228T000000/20241228T235959&format=csv&tz=GMT